createdAt,value
2023-05-14T00:02:07.076Z,101704.97
2023-05-14T00:05:00.508Z,101705.41
2023-05-14T00:07:30.807Z,101709.63
2023-05-14T00:09:59.420Z,101697.63
2023-05-14T00:12:27.447Z,101710.41
2023-05-14T00:14:58.046Z,101711.97
2023-05-14T00:17:25.736Z,101695.28
2023-05-14T00:19:53.521Z,101694.69
2023-05-14T00:22:21.256Z,101681.72
2023-05-14T00:24:48.903Z,101684.53
2023-05-14T00:27:16.663Z,101690.13
2023-05-14T00:29:45.732Z,101696.28
2023-05-14T00:32:13.563Z,101693.78
2023-05-14T00:34:41.346Z,101694.44
2023-05-14T00:37:09.078Z,101689.16
2023-05-14T00:39:37.079Z,101691.56
2023-05-14T00:42:04.885Z,101690.78
2023-05-14T00:44:32.746Z,101688.75
2023-05-14T00:47:00.828Z,101686.28
2023-05-14T00:49:28.809Z,101668.53
2023-05-14T00:51:58.924Z,101692.06
2023-05-14T00:54:28.117Z,101701.78
2023-05-14T00:56:56.315Z,101692.19
2023-05-14T00:59:23.908Z,101692.75
2023-05-14T01:01:51.620Z,101691.63
2023-05-14T01:04:19.890Z,101695.03
2023-05-14T01:07:14.800Z,101690.78
2023-05-14T01:10:17.442Z,101696.16
2023-05-14T01:12:57.125Z,101695.81
2023-05-14T01:15:30.976Z,101690.88
2023-05-14T01:18:09.466Z,101699.38
2023-05-14T01:20:38.167Z,101705.72
2023-05-14T01:23:05.946Z,101696.78
2023-05-14T01:25:33.766Z,101696.44
2023-05-14T01:28:17.360Z,101695.47
2023-05-14T01:31:12.098Z,101697.13
2023-05-14T01:33:42.256Z,101688.63
2023-05-14T01:36:10.777Z,101689.44
2023-05-14T01:38:39.636Z,101689.53
2023-05-14T01:41:07.550Z,101673.16
2023-05-14T01:43:37.300Z,101683.47
2023-05-14T01:46:05.280Z,101682.31
2023-05-14T01:48:33.298Z,101681.97
2023-05-14T01:51:02.239Z,101682.81
2023-05-14T01:53:29.967Z,101667.09
2023-05-14T01:55:57.624Z,101677.09
2023-05-14T01:58:25.458Z,101674.69
2023-05-14T02:00:53.149Z,101675.53
2023-05-14T02:03:21.583Z,101680.03
2023-05-14T02:05:49.290Z,101676.88
2023-05-14T02:08:17.623Z,101664.91
2023-05-14T02:10:45.422Z,101657.94
2023-05-14T02:13:13.081Z,101665.78
2023-05-14T02:15:40.882Z,101663.31
2023-05-14T02:18:08.567Z,101654.44
2023-05-14T02:20:36.274Z,101650.63
2023-05-14T02:23:04.075Z,101655.41
2023-05-14T02:25:31.664Z,101654.34
2023-05-14T02:27:59.218Z,101654.16
2023-05-14T02:30:27.003Z,101660.16
2023-05-14T02:32:55.003Z,101659.50
2023-05-14T02:35:22.978Z,101664.88
2023-05-14T02:37:50.687Z,101655.00
2023-05-14T02:40:18.387Z,101659.28
2023-05-14T02:42:46.186Z,101662.13
2023-05-14T02:45:13.907Z,101664.97
2023-05-14T02:47:41.878Z,101666.59
2023-05-14T02:50:11.167Z,101658.13
2023-05-14T02:52:39.002Z,101665.34
2023-05-14T02:55:07.102Z,101654.13
2023-05-14T02:57:34.864Z,101639.81
2023-05-14T03:00:02.555Z,101651.84
2023-05-14T03:02:32.632Z,101647.09
2023-05-14T03:05:00.746Z,101651.44
2023-05-14T03:07:28.412Z,101656.53
2023-05-14T03:09:56.397Z,101651.19
2023-05-14T03:12:23.990Z,101652.03
2023-05-14T03:14:51.664Z,101643.06
2023-05-14T03:17:19.420Z,101651.66
2023-05-14T03:19:47.102Z,101644.31
2023-05-14T03:22:14.769Z,101643.94
2023-05-14T03:24:42.561Z,101647.41
2023-05-14T03:27:10.214Z,101641.97
2023-05-14T03:29:37.896Z,101655.22
2023-05-14T03:32:06.361Z,101655.69
2023-05-14T03:34:34.153Z,101660.09
2023-05-14T03:37:01.894Z,101618.06
2023-05-14T03:39:29.527Z,101640.16
2023-05-14T03:41:58.831Z,101649.97
2023-05-14T03:44:26.775Z,101638.88
2023-05-14T03:46:54.352Z,101641.22
2023-05-14T03:49:22.415Z,101649.41
2023-05-14T03:51:49.984Z,101643.09
2023-05-14T03:54:17.853Z,101650.53
2023-05-14T03:56:45.923Z,101638.41
2023-05-14T03:59:14.225Z,101639.88
2023-05-14T04:01:41.966Z,101648.25
2023-05-14T04:04:09.708Z,101638.31
2023-05-14T04:06:37.485Z,101642.09
2023-05-14T04:09:05.286Z,101623.19
2023-05-14T04:11:32.925Z,101637.59
2023-05-14T04:14:00.900Z,101639.16
2023-05-14T04:16:28.729Z,101636.56
2023-05-14T04:18:56.599Z,101638.41
2023-05-14T04:21:24.304Z,101639.19
2023-05-14T04:23:51.924Z,101611.19
2023-05-14T04:26:19.572Z,101625.00
2023-05-14T04:28:47.509Z,101624.00
2023-05-14T04:31:15.807Z,101620.81
2023-05-14T04:33:43.560Z,101625.69
2023-05-14T04:36:11.207Z,101628.28
2023-05-14T04:38:38.930Z,101619.94
2023-05-14T04:41:07.075Z,101628.88
2023-05-14T04:43:34.789Z,101625.00
2023-05-14T04:46:02.591Z,101627.72
2023-05-14T04:48:30.437Z,101614.78
2023-05-14T04:50:58.111Z,101623.44
2023-05-14T04:53:25.768Z,101628.19
2023-05-14T04:55:54.064Z,101614.81
2023-05-14T04:58:23.535Z,101622.75
2023-05-14T05:00:51.236Z,101627.66
2023-05-14T05:03:18.976Z,101622.72
2023-05-14T05:05:46.635Z,101625.97
2023-05-14T05:08:14.265Z,101623.09
2023-05-14T05:10:42.085Z,101625.38
2023-05-14T05:13:09.823Z,101616.69
2023-05-14T05:15:37.523Z,101611.56
2023-05-14T05:18:05.355Z,101613.41
2023-05-14T05:20:33.067Z,101607.47
2023-05-14T05:23:00.780Z,101614.66
2023-05-14T05:25:28.376Z,101606.63
2023-05-14T05:27:55.979Z,101619.13
2023-05-14T05:30:23.855Z,101607.38
2023-05-14T05:32:51.789Z,101602.44
2023-05-14T05:35:19.543Z,101606.53
2023-05-14T05:37:47.143Z,101612.66
2023-05-14T05:40:15.698Z,101604.06
2023-05-14T05:42:43.588Z,101604.91
2023-05-14T05:45:11.378Z,101601.28
2023-05-14T05:47:39.034Z,101608.00
2023-05-14T05:50:07.686Z,101599.13
2023-05-14T05:52:35.490Z,101589.91
2023-05-14T05:55:03.635Z,101607.38
2023-05-14T05:57:31.333Z,101599.56
2023-05-14T05:59:59.108Z,101589.25
2023-05-14T06:02:26.851Z,101604.31
2023-05-14T06:04:54.812Z,101590.47
2023-05-14T06:07:22.461Z,101595.19
2023-05-14T06:09:50.229Z,101588.38
2023-05-14T06:12:17.841Z,101589.38
2023-05-14T06:14:45.526Z,101590.91
2023-05-14T06:17:13.101Z,101586.53
2023-05-14T06:19:40.793Z,101591.84
2023-05-14T06:22:08.348Z,101594.75
2023-05-14T06:24:35.913Z,101592.88
2023-05-14T06:27:03.717Z,101586.78
2023-05-14T06:29:31.361Z,101591.03
2023-05-14T06:32:03.714Z,101589.06
2023-05-14T06:34:31.798Z,101589.06
2023-05-14T06:37:00.261Z,101589.22
2023-05-14T06:39:28.032Z,101587.81
2023-05-14T06:41:55.728Z,101588.50
2023-05-14T06:44:24.448Z,101588.66
2023-05-14T06:46:52.072Z,101584.41
2023-05-14T06:49:19.821Z,101590.03
2023-05-14T06:51:47.393Z,101574.94
2023-05-14T06:54:15.153Z,101570.72
2023-05-14T06:56:42.821Z,101579.72
2023-05-14T06:59:10.427Z,101584.41
2023-05-14T07:01:38.082Z,101581.72
2023-05-14T07:04:07.037Z,101582.31
2023-05-14T07:06:35.110Z,101577.94
2023-05-14T07:09:03.156Z,101565.44
2023-05-14T07:11:30.963Z,101567.94
2023-05-14T07:13:58.867Z,101572.13
2023-05-14T07:16:26.842Z,101563.00
2023-05-14T07:18:54.544Z,101567.28
2023-05-14T07:21:22.112Z,101556.88
2023-05-14T07:23:49.820Z,101553.19
2023-05-14T07:26:17.606Z,101554.78
2023-05-14T07:28:45.416Z,101548.72
2023-05-14T07:31:13.125Z,101559.59
2023-05-14T07:33:40.811Z,101550.16
2023-05-14T07:36:08.935Z,101545.31
2023-05-14T07:38:36.848Z,101550.84
2023-05-14T07:41:04.920Z,101544.00
2023-05-14T07:43:32.841Z,101537.84
2023-05-14T07:46:00.550Z,101535.88
2023-05-14T07:48:28.407Z,101535.63
2023-05-14T07:50:56.150Z,101533.81
2023-05-14T07:53:24.904Z,101531.25
2023-05-14T07:55:52.736Z,101503.50
2023-05-14T07:58:20.527Z,101536.66
2023-05-14T08:00:48.126Z,101527.25
2023-05-14T08:03:16.025Z,101492.78
2023-05-14T08:05:43.727Z,101534.47
2023-05-14T08:08:12.495Z,101520.09
2023-05-14T08:10:40.289Z,101529.13
2023-05-14T08:13:08.800Z,101526.50
2023-05-14T08:15:37.017Z,101530.34
2023-05-14T08:18:04.818Z,101520.03
2023-05-14T08:20:32.742Z,101505.16
2023-05-14T08:23:00.677Z,101513.81
2023-05-14T08:25:28.367Z,101513.16
2023-05-14T08:27:56.122Z,101497.97
2023-05-14T08:30:24.182Z,101509.56
2023-05-14T08:32:52.834Z,101508.09
2023-05-14T08:35:20.721Z,101509.66
2023-05-14T08:37:49.639Z,101503.94
2023-05-14T08:40:17.552Z,101499.09
2023-05-14T08:42:45.660Z,101505.94
2023-05-14T08:45:20.113Z,101495.84
2023-05-14T08:47:50.537Z,101495.38
2023-05-14T08:50:23.522Z,101495.19
2023-05-14T08:52:52.815Z,101484.44
2023-05-14T08:55:21.116Z,101486.84
2023-05-14T08:57:49.099Z,101482.94
2023-05-14T09:00:16.837Z,101482.34
2023-05-14T09:02:46.605Z,101486.91
2023-05-14T09:05:15.408Z,101476.25
2023-05-14T09:07:43.226Z,101476.94
2023-05-14T09:10:12.667Z,101467.47
2023-05-14T09:12:40.492Z,101477.53
2023-05-14T09:15:08.800Z,101472.69
2023-05-14T09:17:36.593Z,101468.19
2023-05-14T09:20:05.104Z,101466.91
2023-05-14T09:22:32.913Z,101463.66
2023-05-14T09:25:12.246Z,101459.13
2023-05-14T09:27:40.274Z,101457.50
2023-05-14T09:30:13.284Z,101442.97
2023-05-14T09:32:47.082Z,101440.38
2023-05-14T09:35:23.863Z,101450.91
2023-05-14T09:37:54.288Z,101442.16
2023-05-14T09:40:24.654Z,101447.22
2023-05-14T09:42:52.967Z,101433.22
2023-05-14T09:45:20.856Z,101443.53
2023-05-14T09:47:48.800Z,101442.91
2023-05-14T09:50:16.650Z,101441.28
2023-05-14T09:52:44.345Z,101433.03
2023-05-14T09:55:11.973Z,101435.66
2023-05-14T09:57:39.856Z,101416.94
2023-05-14T10:00:09.217Z,101426.03
2023-05-14T10:02:38.905Z,101408.91
2023-05-14T10:05:07.818Z,101402.81
2023-05-14T10:07:48.710Z,101406.09
2023-05-14T10:10:20.208Z,101410.59
2023-05-14T10:12:57.567Z,101413.06
2023-05-14T10:15:37.826Z,101412.81
2023-05-14T10:18:12.192Z,101403.41
2023-05-14T10:20:41.572Z,101396.94
2023-05-14T10:23:09.464Z,101407.78
2023-05-14T10:25:38.021Z,101386.50
2023-05-14T10:28:06.161Z,101392.16
2023-05-14T10:30:33.748Z,101405.47
2023-05-14T10:33:13.548Z,101382.78
2023-05-14T10:36:05.921Z,101386.75
2023-05-14T10:38:38.492Z,101375.53
2023-05-14T10:41:21.515Z,101378.34
2023-05-14T10:43:50.422Z,101374.53
2023-05-14T10:46:18.302Z,101378.94
2023-05-14T10:48:46.434Z,101367.81
2023-05-14T10:51:17.399Z,101368.03
2023-05-14T10:53:45.165Z,101364.72
2023-05-14T10:56:14.378Z,101362.34
2023-05-14T10:58:44.505Z,101353.22
2023-05-14T11:01:13.675Z,101356.88
2023-05-14T11:03:45.131Z,101349.69
2023-05-14T11:06:15.862Z,101351.63
2023-05-14T11:08:44.484Z,101358.22
2023-05-14T11:11:12.390Z,101356.13
2023-05-14T11:13:41.422Z,101344.72
2023-05-14T11:16:21.788Z,101349.06
2023-05-14T11:19:03.513Z,101339.75
2023-05-14T11:21:32.619Z,101337.22
2023-05-14T11:24:03.877Z,101342.66
2023-05-14T11:26:32.017Z,101339.69
2023-05-14T11:29:00.117Z,101332.78
2023-05-14T11:31:28.030Z,101338.13
2023-05-14T11:33:55.964Z,101331.09
2023-05-14T11:36:23.610Z,101332.16
2023-05-14T11:38:52.535Z,101334.44
2023-05-14T11:41:23.195Z,101338.72
2023-05-14T11:43:51.313Z,101326.94
2023-05-14T11:46:19.702Z,101320.47
2023-05-14T11:48:48.094Z,101323.28
2023-05-14T11:51:15.998Z,101331.31
2023-05-14T11:53:46.016Z,101327.72
2023-05-14T11:56:13.909Z,101330.94
2023-05-14T11:58:41.628Z,101320.66
2023-05-14T12:01:13.843Z,101303.47
2023-05-14T12:03:42.300Z,101318.78
2023-05-14T12:06:10.295Z,101314.41
2023-05-14T12:08:38.028Z,101315.72
2023-05-14T12:11:05.709Z,101320.59
2023-05-14T12:13:33.672Z,101302.81
2023-05-14T12:16:02.658Z,101301.25
2023-05-14T12:18:32.296Z,101313.91
2023-05-14T12:21:05.187Z,101311.00
2023-05-14T12:23:33.006Z,101303.16
2023-05-14T12:26:06.938Z,101299.09
2023-05-14T12:28:38.203Z,101310.81
2023-05-14T12:31:06.402Z,101301.66
2023-05-14T12:33:34.116Z,101292.94
2023-05-14T12:36:10.074Z,101292.56
2023-05-14T12:38:48.554Z,101297.44
2023-05-14T12:41:17.713Z,101288.09
2023-05-14T12:43:48.836Z,101288.78
2023-05-14T12:46:17.010Z,101285.63
2023-05-14T12:48:45.215Z,101280.97
2023-05-14T12:51:16.940Z,101282.00
2023-05-14T12:53:44.759Z,101279.22
2023-05-14T12:56:13.737Z,101284.75
2023-05-14T12:58:41.519Z,101276.72
2023-05-14T13:01:09.541Z,101273.91
2023-05-14T13:03:37.278Z,101274.03
2023-05-14T13:06:05.174Z,101259.41
2023-05-14T13:08:32.888Z,101270.16
2023-05-14T13:11:00.482Z,101267.66
2023-05-14T13:13:28.352Z,101278.16
2023-05-14T13:15:56.179Z,101259.03
2023-05-14T13:18:23.868Z,101257.50
2023-05-14T13:20:51.864Z,101263.78
2023-05-14T13:23:19.636Z,101242.53
2023-05-14T13:25:49.749Z,101265.25
2023-05-14T13:28:17.700Z,101241.09
2023-05-14T13:31:06.917Z,101246.09
2023-05-14T13:33:37.301Z,101235.69
2023-05-14T13:36:05.812Z,101236.34
2023-05-14T13:38:33.802Z,101217.91
2023-05-14T13:41:04.176Z,101226.34
2023-05-14T13:43:35.332Z,101226.00
2023-05-14T13:46:05.266Z,101224.72
2023-05-14T13:48:33.654Z,101223.88
2023-05-14T13:51:01.343Z,101212.56
2023-05-14T13:53:29.234Z,101204.13
2023-05-14T13:55:58.285Z,101201.13
2023-05-14T13:58:26.341Z,101211.81
2023-05-14T14:00:54.548Z,101212.97
2023-05-14T14:03:22.410Z,101194.34
2023-05-14T14:05:50.201Z,101199.72
2023-05-14T14:08:24.082Z,101190.69
2023-05-14T14:10:54.574Z,101183.19
2023-05-14T14:13:22.929Z,101191.16
2023-05-14T14:15:51.210Z,101177.75
2023-05-14T14:18:19.163Z,101174.59
2023-05-14T14:20:47.302Z,101176.72
2023-05-14T14:23:15.135Z,101178.38
2023-05-14T14:25:42.771Z,101181.72
2023-05-14T14:28:10.558Z,101172.13
2023-05-14T14:30:38.125Z,101151.50
2023-05-14T14:33:05.968Z,101159.13
2023-05-14T14:35:35.269Z,101162.25
2023-05-14T14:38:03.077Z,101147.88
2023-05-14T14:40:34.051Z,101149.84
2023-05-14T14:43:02.232Z,101101.63
2023-05-14T14:45:29.995Z,101133.97
2023-05-14T14:48:41.300Z,101142.88
2023-05-14T14:51:09.786Z,101137.09
2023-05-14T14:53:37.512Z,101133.19
2023-05-14T14:56:05.963Z,101137.06
2023-05-14T14:58:33.719Z,101128.38
2023-05-14T15:01:01.607Z,101121.06
2023-05-14T15:03:29.496Z,101121.69
2023-05-14T15:05:57.335Z,101119.50
2023-05-14T15:08:27.713Z,101121.34
2023-05-14T15:10:57.162Z,101117.19
2023-05-14T15:13:25.701Z,101121.56
2023-05-14T15:15:53.438Z,101107.00
2023-05-14T15:18:21.300Z,101115.72
2023-05-14T15:20:49.293Z,101108.44
2023-05-14T15:23:17.223Z,101104.50
2023-05-14T15:25:45.134Z,101092.59
2023-05-14T15:28:12.769Z,101099.19
2023-05-14T15:30:40.469Z,101094.00
2023-05-14T15:33:08.828Z,101086.34
2023-05-14T15:35:36.857Z,101074.72
2023-05-14T15:38:04.618Z,101076.03
2023-05-14T15:40:34.933Z,101079.19
2023-05-14T15:43:03.056Z,101083.91
2023-05-14T15:45:30.712Z,101076.25
2023-05-14T15:47:58.608Z,101067.91
2023-05-14T15:50:27.375Z,101068.47
2023-05-14T15:52:55.381Z,101073.91
2023-05-14T15:55:23.149Z,101073.00
2023-05-14T15:57:50.861Z,101074.25
2023-05-14T16:00:19.604Z,101067.66
2023-05-14T16:02:47.634Z,101080.41
2023-05-14T16:05:15.454Z,101063.22
2023-05-14T16:07:43.152Z,101067.22
2023-05-14T16:10:11.394Z,101056.66
2023-05-14T16:12:39.298Z,101062.19
2023-05-14T16:15:08.182Z,101051.63
2023-05-14T16:17:36.064Z,101047.94
2023-05-14T16:20:07.021Z,101063.56
2023-05-14T16:22:36.109Z,101052.81
2023-05-14T16:25:04.924Z,101049.44
2023-05-14T16:27:33.415Z,101040.13
2023-05-14T16:30:01.104Z,101042.84
2023-05-14T16:32:29.084Z,101043.50
2023-05-14T16:34:57.088Z,101049.81
2023-05-14T16:37:24.854Z,101041.38
2023-05-14T16:39:52.626Z,101034.88
2023-05-14T16:42:20.243Z,101040.88
2023-05-14T16:44:47.868Z,101041.38
2023-05-14T16:47:15.585Z,101042.69
2023-05-14T16:49:43.364Z,101038.78
2023-05-14T16:52:11.215Z,101026.69
2023-05-14T16:54:39.230Z,101033.31
2023-05-14T16:57:07.003Z,101042.00
2023-05-14T16:59:34.837Z,101016.63
2023-05-14T17:02:03.072Z,101023.00
2023-05-14T17:04:34.750Z,101035.19
2023-05-14T17:07:03.926Z,101021.38
2023-05-14T17:09:31.709Z,101030.72
2023-05-14T17:11:59.455Z,101035.84
2023-05-14T17:14:27.376Z,101035.81
2023-05-14T17:16:55.156Z,101039.91
2023-05-14T17:19:22.812Z,101031.13
2023-05-14T17:21:50.854Z,101032.81
2023-05-14T17:24:18.622Z,101032.56
2023-05-14T17:26:46.333Z,101040.34
2023-05-14T17:29:17.139Z,101042.72
2023-05-14T17:31:44.876Z,101037.41
2023-05-14T17:34:12.533Z,101027.66
2023-05-14T17:36:40.247Z,101037.19
2023-05-14T17:39:07.940Z,101045.97
2023-05-14T17:41:35.683Z,101040.44
2023-05-14T17:44:03.323Z,101043.28
2023-05-14T17:46:31.165Z,101043.28
2023-05-14T17:48:58.916Z,101042.63
2023-05-14T17:51:26.648Z,101043.66
2023-05-14T17:53:54.331Z,101048.72
2023-05-14T17:56:23.219Z,101048.97
2023-05-14T17:58:51.025Z,101047.31
2023-05-14T18:01:19.287Z,101050.31
2023-05-14T18:03:49.562Z,101039.97
2023-05-14T18:06:17.616Z,101050.41
2023-05-14T18:08:45.377Z,101046.75
2023-05-14T18:11:13.215Z,101054.63
2023-05-14T18:13:41.094Z,101046.28
2023-05-14T18:16:08.835Z,101055.38
2023-05-14T18:18:36.618Z,101056.94
2023-05-14T18:21:05.382Z,101056.59
2023-05-14T18:23:33.602Z,101064.31
2023-05-14T18:26:01.554Z,101060.91
2023-05-14T18:28:29.381Z,101057.97
2023-05-14T18:30:57.142Z,101071.50
2023-05-14T18:33:25.806Z,101062.63
2023-05-14T18:35:55.705Z,101063.75
2023-05-14T18:38:23.742Z,101059.91
2023-05-14T18:40:51.680Z,101064.38
2023-05-14T18:43:19.786Z,101068.81
2023-05-14T18:45:48.273Z,101074.56
2023-05-14T18:48:16.495Z,101072.53
2023-05-14T18:50:44.381Z,101072.22
2023-05-14T18:53:12.179Z,101080.25
2023-05-14T18:55:43.167Z,101070.94
2023-05-14T18:58:12.061Z,101076.84
2023-05-14T19:00:40.848Z,101074.03
2023-05-14T19:03:11.334Z,101079.47
2023-05-14T19:05:39.315Z,101072.63
2023-05-14T19:08:07.652Z,101069.16
2023-05-14T19:10:35.439Z,101081.13
2023-05-14T19:13:03.547Z,101080.28
2023-05-14T19:15:32.313Z,101084.28
2023-05-14T19:18:00.887Z,101069.81
2023-05-14T19:20:28.705Z,101085.25
2023-05-14T19:22:56.335Z,101079.75
2023-05-14T19:25:24.608Z,101079.19
2023-05-14T19:27:53.620Z,101074.09
2023-05-14T19:30:21.501Z,101075.97
2023-05-14T19:32:49.647Z,101085.22
2023-05-14T19:35:17.532Z,101082.56
2023-05-14T19:37:46.305Z,101081.09
2023-05-14T19:40:13.958Z,101083.72
2023-05-14T19:42:41.711Z,101074.28
2023-05-14T19:45:10.197Z,101059.44
2023-05-14T19:47:37.922Z,101062.84
2023-05-14T19:50:08.384Z,101062.09
2023-05-14T19:52:36.188Z,101058.72
2023-05-14T19:55:04.251Z,101055.28
2023-05-14T19:57:31.937Z,101056.78
2023-05-14T19:59:59.748Z,101055.06
2023-05-14T20:02:27.505Z,101050.78
2023-05-14T20:04:55.413Z,101053.13
2023-05-14T20:07:24.944Z,101042.22
2023-05-14T20:09:52.633Z,101053.44
2023-05-14T20:12:20.360Z,101043.06
2023-05-14T20:14:48.010Z,101046.50
2023-05-14T20:17:15.883Z,101048.28
2023-05-14T20:19:43.776Z,101054.63
2023-05-14T20:22:11.403Z,101046.78
2023-05-14T20:24:41.022Z,101044.78
2023-05-14T20:27:08.882Z,101039.09
2023-05-14T20:29:36.463Z,101046.38
2023-05-14T20:32:04.500Z,101033.06
2023-05-14T20:34:32.116Z,101046.66
2023-05-14T20:36:59.853Z,101039.47
2023-05-14T20:39:27.481Z,101037.69
2023-05-14T20:41:55.134Z,101038.41
2023-05-14T20:44:22.807Z,101030.63
2023-05-14T20:46:50.704Z,101016.72
2023-05-14T20:49:18.420Z,101017.75
2023-05-14T20:51:46.135Z,101017.75
2023-05-14T20:54:13.777Z,101015.22
2023-05-14T20:56:41.468Z,101013.53
2023-05-14T20:59:09.176Z,101006.31
2023-05-14T21:01:37.068Z,100999.34
2023-05-14T21:04:04.983Z,101006.44
2023-05-14T21:06:32.764Z,100998.19
2023-05-14T21:09:02.711Z,101007.00
2023-05-14T21:11:30.396Z,100996.56
2023-05-14T21:13:58.086Z,101003.44
2023-05-14T21:16:25.891Z,101004.44
2023-05-14T21:18:53.669Z,101000.28
2023-05-14T21:21:23.986Z,100996.22
2023-05-14T21:23:51.959Z,101001.56
2023-05-14T21:26:22.151Z,100993.03
2023-05-14T21:28:49.821Z,100988.50
2023-05-14T21:31:17.562Z,100996.88
2023-05-14T21:33:45.282Z,100992.69
2023-05-14T21:36:13.013Z,100985.47
2023-05-14T21:38:41.573Z,100991.38
2023-05-14T21:41:12.128Z,100997.03
2023-05-14T21:43:40.754Z,100992.88
2023-05-14T21:46:08.642Z,100999.91
2023-05-14T21:48:36.412Z,100995.22
2023-05-14T21:51:04.265Z,100988.81
2023-05-14T21:53:31.928Z,100985.97
2023-05-14T21:55:59.511Z,100938.13
2023-05-14T21:58:27.685Z,100981.75
2023-05-14T22:00:55.280Z,100985.63
2023-05-14T22:03:23.268Z,100983.28
2023-05-14T22:05:51.581Z,100976.88
2023-05-14T22:08:19.343Z,100976.00
2023-05-14T22:10:47.539Z,100959.06
2023-05-14T22:13:15.322Z,100975.22
2023-05-14T22:15:42.975Z,100971.81
2023-05-14T22:18:12.625Z,100970.66
2023-05-14T22:20:40.525Z,100974.88
2023-05-14T22:23:08.204Z,100970.50
2023-05-14T22:25:35.829Z,100956.69
2023-05-14T22:28:03.573Z,100965.28
2023-05-14T22:30:31.239Z,100955.63
2023-05-14T22:32:58.959Z,100949.81
2023-05-14T22:35:27.004Z,100945.56
2023-05-14T22:37:54.776Z,100956.03
2023-05-14T22:40:22.404Z,100942.84
2023-05-14T22:42:50.021Z,100933.97
2023-05-14T22:45:17.877Z,100946.88
2023-05-14T22:47:45.539Z,100958.16
2023-05-14T22:50:13.312Z,100948.53
2023-05-14T22:52:41.403Z,100952.78
2023-05-14T22:55:09.386Z,100949.84
2023-05-14T22:57:37.186Z,100933.09
2023-05-14T23:00:06.972Z,100948.81
2023-05-14T23:02:34.713Z,100943.81
2023-05-14T23:05:02.566Z,100941.28
2023-05-14T23:07:30.246Z,100936.19
2023-05-14T23:09:57.924Z,100931.66
2023-05-14T23:12:25.998Z,100928.13
2023-05-14T23:14:53.589Z,100929.59
2023-05-14T23:17:21.313Z,100929.06
2023-05-14T23:19:49.026Z,100927.25
2023-05-14T23:22:16.782Z,100923.91
2023-05-14T23:24:45.018Z,100907.75
2023-05-14T23:27:13.564Z,100915.72
2023-05-14T23:29:41.235Z,100914.63
2023-05-14T23:32:11.768Z,100915.81
2023-05-14T23:34:39.617Z,100912.13
2023-05-14T23:37:07.775Z,100902.03
2023-05-14T23:39:35.391Z,100903.41
2023-05-14T23:42:03.133Z,100909.59
2023-05-14T23:44:30.812Z,100894.41
2023-05-14T23:46:58.572Z,100900.59
2023-05-14T23:49:26.363Z,100888.41
2023-05-14T23:51:54.770Z,100890.13
2023-05-14T23:54:22.430Z,100892.56
2023-05-14T23:56:50.114Z,100897.28
2023-05-14T23:59:18.407Z,100895.44
